»·PEaware :: UAL1529 KBOI-KSEA

UAL1529 :: KBOI-KSEA

FLIGHT INFORMATION

Flight Status: Arrived
Operator:
United Airlines
More flights by this operator :: More flights under this callsign
Pilot: Brandon F. (14792)
Aircraft: Unknown
(A359)
More flights by this aircraft type
Origin: KBOI Boise Air Terminal/Gowen
United States
Destination: KSEA Seattle-Tacoma Intl
United States
More flights between these airports :: More routes between these airports
Route: +BOI3 LICKS PREIS PDT CHINS3
File this flight plan on PilotEdge
Remarks:
Altitude:
(Current/Filed)
34,000ft
Speed:
(Current/Filed)
503kts
Departed: 04-Mar-18 05:12 PM
Arrived: 04-Mar-18 06:23 PM
Distance/Time
Traveled:
346nm/1:11
Distance/Time
To Go:
Arrived

Flight Plot

Page will automatically refresh every two minutes.

Flight plan parsing failed; only flown route is shown


Map Options




Map Legend


Flown Route
Filed Route
Departure Airport
Arrival Airport
Navaid (VOR, NDB)
Fix

Horizontal Profiles

Position Reports

Time Latitude Longitude Heading Altitude Ground
Speed
04-Mar-18 16:43 43.568293 -116.220265 272 2885ft 0kts
04-Mar-18 16:44 43.568293 -116.220265 272 2885ft 0kts
04-Mar-18 16:45 43.568293 -116.220265 272 2885ft 0kts
04-Mar-18 16:46 43.568293 -116.220265 272 2885ft 0kts
04-Mar-18 16:47 43.568293 -116.220265 272 2885ft 0kts
04-Mar-18 16:48 43.568293 -116.220265 272 2885ft 0kts
04-Mar-18 16:49 43.568293 -116.220265 272 2885ft 0kts
04-Mar-18 16:51 43.570230 -116.229043 272 2885ft 0kts
04-Mar-18 16:52 43.570230 -116.229043 272 2885ft 0kts
04-Mar-18 16:53 43.570230 -116.229043 272 2885ft 0kts
04-Mar-18 16:54 43.570230 -116.229043 272 2885ft 0kts
04-Mar-18 16:55 43.570230 -116.229043 272 2885ft 0kts
04-Mar-18 16:56 43.570230 -116.229043 272 2885ft 0kts
04-Mar-18 16:57 43.570230 -116.229043 272 2885ft 0kts
04-Mar-18 16:58 43.570230 -116.229043 272 2885ft 0kts
04-Mar-18 16:59 43.570230 -116.229043 272 2885ft 0kts
04-Mar-18 17:00 43.570230 -116.229043 272 2885ft 0kts
04-Mar-18 17:01 43.570230 -116.229043 272 2885ft 0kts
04-Mar-18 17:02 43.570230 -116.229043 272 2885ft 0kts
04-Mar-18 17:03 43.570230 -116.229043 272 2885ft 0kts
04-Mar-18 17:04 43.570230 -116.229043 272 2885ft 0kts
04-Mar-18 17:05 43.570230 -116.229043 272 2885ft 0kts
04-Mar-18 17:06 43.570230 -116.229043 272 2885ft 0kts
04-Mar-18 17:07 43.570230 -116.229043 272 2885ft 0kts
04-Mar-18 17:08 43.570230 -116.229043 272 2885ft 0kts
04-Mar-18 17:09 43.570230 -116.229043 272 2885ft 0kts
04-Mar-18 17:10 43.570230 -116.229043 272 2885ft 0kts
04-Mar-18 17:11 43.570230 -116.229043 272 2885ft 0kts
04-Mar-18 17:12 43.570230 -116.229043 272 2885ft 0kts
04-Mar-18 17:13 43.570230 -116.229043 272 2885ft 0kts
04-Mar-18 17:14 43.569294 -116.229119 152 2885ft 14kts
04-Mar-18 17:15 43.566609 -116.222801 115 2885ft 22kts
04-Mar-18 17:16 43.563841 -116.214691 115 2885ft 24kts
04-Mar-18 17:17 43.560980 -116.206324 114 2885ft 23kts
04-Mar-18 17:18 43.558864 -116.202846 229 2885ft 8kts
04-Mar-18 17:19 43.567977 -116.232461 288 3310ft 174kts
04-Mar-18 17:20 43.575467 -116.271863 292 4193ft 153kts
04-Mar-18 17:21 43.589640 -116.312413 296 4677ft 155kts
04-Mar-18 17:22 43.622601 -116.354476 336 4931ft 188kts
04-Mar-18 17:23 43.667279 -116.385554 332 5837ft 249kts
04-Mar-18 17:24 43.730972 -116.431685 332 9486ft 269kts
04-Mar-18 17:25 43.798225 -116.480539 332 12857ft 283kts
04-Mar-18 17:26 43.874008 -116.535741 332 15274ft 324kts
04-Mar-18 17:27 43.952934 -116.593416 332 18078ft 338kts
04-Mar-18 17:28 44.037225 -116.655210 332 20735ft 352kts
04-Mar-18 17:29 44.124396 -116.721880 326 23203ft 366kts
04-Mar-18 17:30 44.204734 -116.812104 315 25491ft 380kts
04-Mar-18 17:31 44.280855 -116.916990 315 27625ft 393kts
04-Mar-18 17:32 44.359673 -117.025801 315 29625ft 405kts
04-Mar-18 17:33 44.440710 -117.137829 315 31496ft 418kts
04-Mar-18 17:34 44.524305 -117.253310 315 33248ft 430kts
04-Mar-18 17:35 44.611418 -117.374334 315 33988ft 465kts
04-Mar-18 17:36 44.707520 -117.508869 315 33989ft 507kts
04-Mar-18 17:37 44.806727 -117.648843 314 33989ft 507kts
04-Mar-18 17:38 44.906176 -117.789956 314 33989ft 507kts
04-Mar-18 17:39 45.005086 -117.931042 314 33989ft 507kts
04-Mar-18 17:40 45.103575 -118.072259 314 33989ft 507kts
04-Mar-18 17:41 45.202347 -118.213540 314 33989ft 507kts
04-Mar-18 17:42 45.301261 -118.356365 314 33989ft 507kts
04-Mar-18 17:43 45.399572 -118.499550 314 33989ft 507kts
04-Mar-18 17:44 45.497665 -118.643183 314 33989ft 507kts
04-Mar-18 17:45 45.595264 -118.786449 314 33989ft 507kts
04-Mar-18 17:46 45.693225 -118.931088 314 33989ft 507kts
04-Mar-18 17:47 45.784764 -119.083502 310 33989ft 507kts
04-Mar-18 17:48 45.875584 -119.237406 310 33989ft 507kts
04-Mar-18 17:49 45.966168 -119.391809 309 33989ft 507kts
04-Mar-18 17:50 46.056644 -119.547253 309 33989ft 507kts
04-Mar-18 17:51 46.146718 -119.702884 309 33989ft 507kts
04-Mar-18 17:52 46.236666 -119.859021 309 33989ft 507kts
04-Mar-18 17:53 46.326184 -120.015317 309 33989ft 507kts
04-Mar-18 17:54 46.414015 -120.168986 309 33632ft 479kts
04-Mar-18 17:55 46.487602 -120.297993 309 31254ft 459kts
04-Mar-18 17:56 46.552574 -120.413256 309 28963ft 443kts
04-Mar-18 17:57 46.623443 -120.553696 304 26254ft 425kts
04-Mar-18 17:58 46.688387 -120.691579 304 24080ft 394kts
04-Mar-18 17:59 46.748975 -120.819732 304 21576ft 382kts
04-Mar-18 18:00 46.800125 -120.928253 304 19414ft 370kts
04-Mar-18 18:01 46.857052 -121.049430 304 16955ft 356kts
04-Mar-18 18:02 46.912285 -121.166727 304 15995ft 352kts
04-Mar-18 18:03 46.967535 -121.284816 304 15994ft 352kts
04-Mar-18 18:04 47.022603 -121.403684 304 15994ft 352kts
04-Mar-18 18:05 47.076545 -121.520599 304 15994ft 340kts
04-Mar-18 18:06 47.128695 -121.633945 304 14775ft 333kts
04-Mar-18 18:07 47.179868 -121.745774 304 13302ft 326kts
04-Mar-18 18:08 47.229617 -121.854850 304 11999ft 318kts
04-Mar-18 18:09 47.278820 -121.963142 304 11994ft 320kts
04-Mar-18 18:10 47.327716 -122.071186 304 11993ft 307kts
04-Mar-18 18:11 47.381617 -122.158301 338 11996ft 298kts
04-Mar-18 18:12 47.461588 -122.172594 355 11355ft 291kts
04-Mar-18 18:13 47.536387 -122.181674 355 10034ft 265kts
04-Mar-18 18:14 47.606834 -122.190163 355 8340ft 258kts
04-Mar-18 18:15 47.676093 -122.198471 355 6460ft 251kts
04-Mar-18 18:16 47.743353 -122.206521 355 4543ft 244kts
04-Mar-18 18:17 47.807844 -122.214220 355 4000ft 244kts
04-Mar-18 18:18 47.872349 -122.231815 311 3993ft 243kts
04-Mar-18 18:19 47.850343 -122.300119 205 3991ft 200kts
04-Mar-18 18:20 47.801091 -122.335257 205 3995ft 190kts
04-Mar-18 18:21 47.752888 -122.336232 172 3997ft 190kts
04-Mar-18 18:22 47.710345 -122.320884 168 3997ft 178kts
04-Mar-18 18:23 47.667130 -122.316891 179 3997ft 179kts
04-Mar-18 18:24 47.627979 -122.316681 179 3640ft 147kts
04-Mar-18 18:25 47.593783 -122.316802 180 2990ft 145kts
04-Mar-18 18:26 47.558706 -122.317040 180 2319ft 144kts
04-Mar-18 18:27 47.522460 -122.317327 180 1619ft 132kts
04-Mar-18 18:28 47.486745 -122.317620 180 941ft 131kts
04-Mar-18 18:29 47.452671 -122.317886 180 447ft 69kts
04-Mar-18 18:30 47.448149 -122.316769 151 447ft 8kts
04-Mar-18 18:31 47.446483 -122.312757 93 447ft 15kts
04-Mar-18 18:32 47.443527 -122.307444 99 447ft 17kts

Navigation Log

Ident Type
Flight plan parsing failed, navigation log unavailable